createdAt,value
2023-01-17T00:03:27.921Z,3.80
2023-01-17T00:13:29.881Z,3.70
2023-01-17T00:23:31.814Z,3.60
2023-01-17T00:33:34.183Z,3.60
2023-01-17T00:43:36.439Z,3.60
2023-01-17T00:53:38.426Z,3.50
2023-01-17T01:03:40.278Z,3.40
2023-01-17T01:13:42.188Z,3.20
2023-01-17T01:23:44.039Z,3.10
2023-01-17T01:33:47.842Z,3.00
2023-01-17T01:43:54.826Z,2.90
2023-01-17T01:54:09.567Z,2.70
2023-01-17T02:04:12.837Z,2.60
2023-01-17T02:14:20.049Z,2.60
2023-01-17T02:24:30.981Z,2.40
2023-01-17T02:35:12.147Z,2.40
2023-01-17T02:45:18.718Z,2.40
2023-01-17T02:55:38.949Z,2.20
2023-01-17T03:05:49.902Z,2.20
2023-01-17T03:15:51.843Z,2.10
2023-01-17T03:25:59.832Z,2.10
2023-01-17T03:36:05.354Z,2.10
2023-01-17T03:46:17.429Z,2.10
2023-01-17T03:56:24.732Z,2.10
2023-01-17T04:06:26.639Z,2.10
2023-01-17T04:16:30.640Z,1.90
2023-01-17T04:26:32.475Z,1.80
2023-01-17T04:36:36.147Z,1.60
2023-01-17T04:46:37.975Z,1.60
2023-01-17T04:56:39.810Z,1.60
2023-01-17T05:06:41.681Z,1.60
2023-01-17T05:16:43.754Z,1.50
2023-01-17T05:26:46.210Z,1.70
2023-01-17T05:36:48.147Z,1.70
2023-01-17T05:46:50.023Z,1.70
2023-01-17T05:56:51.912Z,1.70
2023-01-17T06:06:53.743Z,1.70
2023-01-17T06:16:55.663Z,1.80
2023-01-17T06:26:58.048Z,1.90
2023-01-17T06:37:00.006Z,1.90
2023-01-17T06:47:01.873Z,1.90
2023-01-17T06:57:03.838Z,2.00
2023-01-17T07:07:05.693Z,2.10
2023-01-17T07:17:07.542Z,2.10
2023-01-17T07:27:09.403Z,2.20
2023-01-17T07:37:15.011Z,2.30
2023-01-17T07:47:17.094Z,2.50
2023-01-17T07:57:19.301Z,2.50
2023-01-17T08:07:21.299Z,2.60
2023-01-17T08:17:28.592Z,2.70
2023-01-17T08:27:30.424Z,2.80
2023-01-17T08:37:32.441Z,2.90
2023-01-17T08:47:35.059Z,3.00
2023-01-17T08:57:36.915Z,3.00
2023-01-17T09:07:39.457Z,3.20
2023-01-17T09:17:41.406Z,3.40
2023-01-17T09:27:47.055Z,3.60
2023-01-17T09:37:50.420Z,4.00
2023-01-17T09:47:54.554Z,4.60
2023-01-17T09:58:01.165Z,5.40
2023-01-17T10:08:24.613Z,5.70
2023-01-17T10:19:04.203Z,6.20
2023-01-17T10:29:16.588Z,6.30
2023-01-17T10:39:24.553Z,6.70
2023-01-17T10:49:28.034Z,6.50
2023-01-17T10:59:34.822Z,6.70
2023-01-17T11:09:45.572Z,6.90
2023-01-17T11:19:47.597Z,7.00
2023-01-17T11:30:04.441Z,7.00
2023-01-17T11:40:08.591Z,7.00
2023-01-17T11:50:27.277Z,7.00
2023-01-17T12:00:41.204Z,6.80
2023-01-17T12:10:51.969Z,6.70
2023-01-17T12:21:02.691Z,6.60
2023-01-17T12:31:07.577Z,6.50
2023-01-17T12:41:16.231Z,6.40
2023-01-17T12:51:39.195Z,6.20
2023-01-17T13:01:48.839Z,6.30
2023-01-17T13:12:00.269Z,6.20
2023-01-17T13:22:07.838Z,6.00
2023-01-17T13:32:49.215Z,6.10
2023-01-17T13:43:02.535Z,6.00
2023-01-17T13:53:27.312Z,5.90
2023-01-17T14:03:51.081Z,5.80
2023-01-17T14:13:52.979Z,5.80
2023-01-17T14:24:02.573Z,5.70
2023-01-17T14:34:21.418Z,5.40
2023-01-17T14:44:23.285Z,5.30
2023-01-17T14:54:25.080Z,5.10
2023-01-17T15:04:29.159Z,5.00
2023-01-17T15:14:38.058Z,4.80
2023-01-17T15:24:44.423Z,4.60
2023-01-17T15:34:48.995Z,4.50
2023-01-17T15:55:45.499Z,3.70
2023-01-17T16:05:48.367Z,3.50
2023-01-17T16:15:50.511Z,3.60
2023-01-17T16:25:52.436Z,3.20
2023-01-17T16:35:54.510Z,2.90
2023-01-17T16:45:56.487Z,3.50
2023-01-17T16:56:05.631Z,3.30
2023-01-17T17:06:08.102Z,3.30
2023-01-17T17:16:15.026Z,3.10
2023-01-17T17:26:17.106Z,3.00
2023-01-17T17:36:19.160Z,3.00
2023-01-17T17:46:24.102Z,2.90
2023-01-17T17:56:26.475Z,2.90
2023-01-17T18:06:28.601Z,2.80
2023-01-17T18:16:33.410Z,2.90
2023-01-17T18:26:41.775Z,3.00
2023-01-17T18:36:44.198Z,2.90
2023-01-17T18:46:47.311Z,2.70
2023-01-17T18:56:50.114Z,2.80
2023-01-17T19:06:53.948Z,2.60
2023-01-17T19:16:55.828Z,2.60
2023-01-17T19:26:57.745Z,2.50
2023-01-17T19:36:59.584Z,2.40
2023-01-17T19:47:01.577Z,2.60
2023-01-17T19:57:03.468Z,2.60
2023-01-17T20:07:05.433Z,2.50
2023-01-17T20:17:07.294Z,2.50
2023-01-17T20:27:09.182Z,2.30
2023-01-17T20:37:11.078Z,2.60
2023-01-17T20:47:12.923Z,2.50
2023-01-17T20:57:14.801Z,2.60
2023-01-17T21:07:17.527Z,2.60
2023-01-17T21:17:19.397Z,2.60
2023-01-17T21:27:21.301Z,2.60
2023-01-17T21:37:23.105Z,2.70
2023-01-17T21:47:24.957Z,2.70
2023-01-17T21:57:26.917Z,2.80
2023-01-17T22:07:28.770Z,2.70
2023-01-17T22:17:30.686Z,2.80
2023-01-17T22:27:32.659Z,2.80
2023-01-17T22:37:34.482Z,2.80
2023-01-17T22:47:36.764Z,2.80
2023-01-17T22:57:38.632Z,2.70
2023-01-17T23:07:40.547Z,2.80
2023-01-17T23:17:42.523Z,2.70
2023-01-17T23:27:46.657Z,2.70
2023-01-17T23:37:48.911Z,2.70
2023-01-17T23:47:50.709Z,2.60
2023-01-17T23:57:52.488Z,2.60
